sensor_id;sensor_type;location;lat;lon;timestamp;pressure;altitude;pressure_sealevel;temperature;humidity
47054;BME280;32811;52.382;5.270;2023-02-17T00:01:32;101960.50;;;8.19;100.00
47054;BME280;32811;52.382;5.270;2023-02-17T00:03:59;101952.69;;;8.16;100.00
47054;BME280;32811;52.382;5.270;2023-02-17T00:06:34;101924.13;;;8.06;100.00
47054;BME280;32811;52.382;5.270;2023-02-17T00:09:03;101897.75;;;7.86;100.00
47054;BME280;32811;52.382;5.270;2023-02-17T00:11:29;101927.56;;;8.07;100.00
47054;BME280;32811;52.382;5.270;2023-02-17T00:14:02;101901.41;;;7.93;100.00
47054;BME280;32811;52.382;5.270;2023-02-17T00:16:29;101950.22;;;8.19;100.00
47054;BME280;32811;52.382;5.270;2023-02-17T00:18:58;101948.56;;;8.21;100.00
47054;BME280;32811;52.382;5.270;2023-02-17T00:21:28;101945.19;;;8.22;100.00
47054;BME280;32811;52.382;5.270;2023-02-17T00:23:56;101931.13;;;8.12;100.00
47054;BME280;32811;52.382;5.270;2023-02-17T00:26:23;101939.84;;;8.16;100.00
47054;BME280;32811;52.382;5.270;2023-02-17T00:28:52;101927.75;;;8.13;100.00
47054;BME280;32811;52.382;5.270;2023-02-17T00:31:20;101923.47;;;8.14;100.00
47054;BME280;32811;52.382;5.270;2023-02-17T00:33:48;101929.69;;;8.20;100.00
47054;BME280;32811;52.382;5.270;2023-02-17T00:36:25;101883.41;;;7.93;100.00
47054;BME280;32811;52.382;5.270;2023-02-17T00:38:55;101931.41;;;8.20;100.00
47054;BME280;32811;52.382;5.270;2023-02-17T00:41:23;101933.03;;;8.18;100.00
47054;BME280;32811;52.382;5.270;2023-02-17T00:43:56;101915.50;;;8.06;100.00
47054;BME280;32811;52.382;5.270;2023-02-17T00:46:31;101932.31;;;8.22;100.00
47054;BME280;32811;52.382;5.270;2023-02-17T00:49:00;101907.97;;;8.10;100.00
47054;BME280;32811;52.382;5.270;2023-02-17T00:51:30;101919.25;;;8.16;100.00
47054;BME280;32811;52.382;5.270;2023-02-17T00:53:57;101868.19;;;7.99;100.00
47054;BME280;32811;52.382;5.270;2023-02-17T00:56:32;101891.75;;;8.13;100.00
47054;BME280;32811;52.382;5.270;2023-02-17T00:59:07;101928.91;;;8.23;100.00
47054;BME280;32811;52.382;5.270;2023-02-17T01:01:50;101907.34;;;8.19;100.00
47054;BME280;32811;52.382;5.270;2023-02-17T01:04:17;101932.47;;;8.26;100.00
47054;BME280;32811;52.382;5.270;2023-02-17T01:06:51;101931.56;;;8.26;100.00
47054;BME280;32811;52.382;5.270;2023-02-17T01:09:20;101900.06;;;8.06;100.00
47054;BME280;32811;52.382;5.270;2023-02-17T01:11:54;101915.13;;;8.21;100.00
47054;BME280;32811;52.382;5.270;2023-02-17T01:14:20;101893.25;;;8.06;100.00
47054;BME280;32811;52.382;5.270;2023-02-17T01:16:55;101884.66;;;8.06;100.00
47054;BME280;32811;52.382;5.270;2023-02-17T01:19:21;101887.19;;;8.04;100.00
47054;BME280;32811;52.382;5.270;2023-02-17T01:22:08;101891.56;;;8.07;100.00
47054;BME280;32811;52.382;5.270;2023-02-17T01:24:47;101890.97;;;8.16;100.00
47054;BME280;32811;52.382;5.270;2023-02-17T01:27:15;101889.06;;;8.10;100.00
47054;BME280;32811;52.382;5.270;2023-02-17T01:29:45;101903.97;;;8.20;100.00
47054;BME280;32811;52.382;5.270;2023-02-17T01:32:23;101867.28;;;7.99;100.00
47054;BME280;32811;52.382;5.270;2023-02-17T01:34:50;101889.03;;;8.08;100.00
47054;BME280;32811;52.382;5.270;2023-02-17T01:37:21;101870.66;;;7.96;100.00
47054;BME280;32811;52.382;5.270;2023-02-17T01:39:51;101875.06;;;8.00;100.00
47054;BME280;32811;52.382;5.270;2023-02-17T01:42:18;101903.53;;;8.06;100.00
47054;BME280;32811;52.382;5.270;2023-02-17T01:50:19;101892.53;;;8.10;100.00
47054;BME280;32811;52.382;5.270;2023-02-17T01:52:47;101888.94;;;8.05;100.00
47054;BME280;32811;52.382;5.270;2023-02-17T01:55:17;101906.19;;;8.09;100.00
47054;BME280;32811;52.382;5.270;2023-02-17T01:57:45;101873.41;;;8.02;100.00
47054;BME280;32811;52.382;5.270;2023-02-17T02:00:14;101887.28;;;8.07;100.00
47054;BME280;32811;52.382;5.270;2023-02-17T02:02:45;101880.28;;;8.03;100.00
47054;BME280;32811;52.382;5.270;2023-02-17T02:05:15;101888.06;;;8.05;100.00
47054;BME280;32811;52.382;5.270;2023-02-17T02:07:44;101867.41;;;8.02;100.00
47054;BME280;32811;52.382;5.270;2023-02-17T02:10:18;101865.91;;;8.08;100.00
47054;BME280;32811;52.382;5.270;2023-02-17T02:12:47;101858.84;;;8.03;100.00
47054;BME280;32811;52.382;5.270;2023-02-17T02:15:21;101852.66;;;7.96;100.00
47054;BME280;32811;52.382;5.270;2023-02-17T02:18:13;101856.97;;;7.97;100.00
47054;BME280;32811;52.382;5.270;2023-02-17T02:34:21;101842.00;;;7.84;100.00
47054;BME280;32811;52.382;5.270;2023-02-17T02:36:55;101840.16;;;7.80;100.00
47054;BME280;32811;52.382;5.270;2023-02-17T02:39:29;101842.00;;;7.84;100.00
47054;BME280;32811;52.382;5.270;2023-02-17T02:42:05;101850.47;;;7.81;100.00
47054;BME280;32811;52.382;5.270;2023-02-17T02:44:33;101836.78;;;7.82;100.00
47054;BME280;32811;52.382;5.270;2023-02-17T02:50:09;101823.81;;;7.78;100.00
47054;BME280;32811;52.382;5.270;2023-02-17T02:55:36;101835.00;;;7.80;100.00
47054;BME280;32811;52.382;5.270;2023-02-17T03:00:48;101819.31;;;7.71;100.00
47054;BME280;32811;52.382;5.270;2023-02-17T03:06:26;101799.47;;;7.66;100.00
47054;BME280;32811;52.382;5.270;2023-02-17T03:08:59;101801.91;;;7.63;100.00
47054;BME280;32811;52.382;5.270;2023-02-17T03:11:28;101808.88;;;7.66;100.00
47054;BME280;32811;52.382;5.270;2023-02-17T03:14:10;101815.59;;;7.62;100.00
47054;BME280;32811;52.382;5.270;2023-02-17T03:16:38;101804.59;;;7.66;100.00
47054;BME280;32811;52.382;5.270;2023-02-17T03:19:06;101806.25;;;7.64;100.00
47054;BME280;32811;52.382;5.270;2023-02-17T03:21:37;101779.53;;;7.59;100.00
47054;BME280;32811;52.382;5.270;2023-02-17T03:24:04;101769.94;;;7.54;100.00
47054;BME280;32811;52.382;5.270;2023-02-17T03:26:31;101764.13;;;7.59;100.00
47054;BME280;32811;52.382;5.270;2023-02-17T03:28:57;101761.66;;;7.62;100.00
47054;BME280;32811;52.382;5.270;2023-02-17T03:31:24;101765.91;;;7.62;100.00
47054;BME280;32811;52.382;5.270;2023-02-17T03:33:51;101753.78;;;7.58;100.00
47054;BME280;32811;52.382;5.270;2023-02-17T03:36:18;101756.38;;;7.58;100.00
47054;BME280;32811;52.382;5.270;2023-02-17T03:38:44;101747.94;;;7.62;100.00
47054;BME280;32811;52.382;5.270;2023-02-17T03:41:11;101754.88;;;7.64;100.00
47054;BME280;32811;52.382;5.270;2023-02-17T03:43:37;101748.50;;;7.53;100.00
47054;BME280;32811;52.382;5.270;2023-02-17T03:46:09;101741.09;;;7.62;100.00
47054;BME280;32811;52.382;5.270;2023-02-17T03:48:36;101755.59;;;7.60;100.00
47054;BME280;32811;52.382;5.270;2023-02-17T03:51:13;101762.47;;;7.61;100.00
47054;BME280;32811;52.382;5.270;2023-02-17T03:53:42;101766.13;;;7.68;100.00
47054;BME280;32811;52.382;5.270;2023-02-17T03:56:10;101745.44;;;7.65;100.00
47054;BME280;32811;52.382;5.270;2023-02-17T03:58:37;101754.00;;;7.64;100.00
47054;BME280;32811;52.382;5.270;2023-02-17T04:01:05;101753.22;;;7.66;100.00
47054;BME280;32811;52.382;5.270;2023-02-17T04:03:33;101765.13;;;7.64;100.00
47054;BME280;32811;52.382;5.270;2023-02-17T04:06:00;101762.56;;;7.64;100.00
47054;BME280;32811;52.382;5.270;2023-02-17T04:08:27;101764.88;;;7.57;100.00
47054;BME280;32811;52.382;5.270;2023-02-17T04:10:57;101772.16;;;7.70;100.00
47054;BME280;32811;52.382;5.270;2023-02-17T04:13:24;101784.06;;;7.66;100.00
47054;BME280;32811;52.382;5.270;2023-02-17T04:15:52;101771.91;;;7.62;100.00
47054;BME280;32811;52.382;5.270;2023-02-17T04:18:20;101781.41;;;7.65;100.00
47054;BME280;32811;52.382;5.270;2023-02-17T04:20:48;101774.06;;;7.76;100.00
47054;BME280;32811;52.382;5.270;2023-02-17T04:23:15;101766.28;;;7.74;100.00
47054;BME280;32811;52.382;5.270;2023-02-17T04:25:43;101764.34;;;7.67;100.00
47054;BME280;32811;52.382;5.270;2023-02-17T04:28:10;101761.78;;;7.67;100.00
47054;BME280;32811;52.382;5.270;2023-02-17T04:30:37;101752.22;;;7.61;100.00
47054;BME280;32811;52.382;5.270;2023-02-17T04:33:04;101726.50;;;7.61;100.00
47054;BME280;32811;52.382;5.270;2023-02-17T04:35:30;101739.53;;;7.67;100.00
47054;BME280;32811;52.382;5.270;2023-02-17T04:37:57;101751.50;;;7.67;100.00
47054;BME280;32811;52.382;5.270;2023-02-17T04:40:24;101752.56;;;7.74;100.00
47054;BME280;32811;52.382;5.270;2023-02-17T04:42:50;101737.16;;;7.74;100.00
47054;BME280;32811;52.382;5.270;2023-02-17T04:45:17;101737.06;;;7.71;100.00
47054;BME280;32811;52.382;5.270;2023-02-17T04:47:44;101726.88;;;7.74;100.00
47054;BME280;32811;52.382;5.270;2023-02-17T04:50:10;101726.00;;;7.73;100.00
47054;BME280;32811;52.382;5.270;2023-02-17T04:52:37;101735.50;;;7.76;100.00
47054;BME280;32811;52.382;5.270;2023-02-17T04:55:05;101731.47;;;7.84;100.00
47054;BME280;32811;52.382;5.270;2023-02-17T04:57:31;101740.84;;;7.82;100.00
47054;BME280;32811;52.382;5.270;2023-02-17T04:59:58;101741.00;;;7.88;100.00
47054;BME280;32811;52.382;5.270;2023-02-17T05:02:26;101748.69;;;7.86;100.00
47054;BME280;32811;52.382;5.270;2023-02-17T05:04:53;101748.69;;;7.86;100.00
47054;BME280;32811;52.382;5.270;2023-02-17T05:07:20;101751.38;;;7.91;100.00
47054;BME280;32811;52.382;5.270;2023-02-17T05:09:47;101748.81;;;7.91;100.00
47054;BME280;32811;52.382;5.270;2023-02-17T05:12:14;101759.44;;;8.02;100.00
47054;BME280;32811;52.382;5.270;2023-02-17T05:14:40;101755.00;;;7.98;100.00
47054;BME280;32811;52.382;5.270;2023-02-17T05:17:07;101750.00;;;8.02;100.00
47054;BME280;32811;52.382;5.270;2023-02-17T05:19:33;101746.38;;;7.96;100.00
47054;BME280;32811;52.382;5.270;2023-02-17T05:22:00;101748.25;;;8.01;100.00
47054;BME280;32811;52.382;5.270;2023-02-17T05:24:27;101725.94;;;8.00;100.00
47054;BME280;32811;52.382;5.270;2023-02-17T05:26:53;101731.97;;;8.01;100.00
47054;BME280;32811;52.382;5.270;2023-02-17T05:29:20;101732.19;;;8.08;100.00
47054;BME280;32811;52.382;5.270;2023-02-17T05:31:46;101733.19;;;8.14;100.00
47054;BME280;32811;52.382;5.270;2023-02-17T05:34:13;101728.03;;;8.14;100.00
47054;BME280;32811;52.382;5.270;2023-02-17T05:36:40;101724.81;;;8.21;100.00
47054;BME280;32811;52.382;5.270;2023-02-17T05:39:06;101725.72;;;8.23;100.00
47054;BME280;32811;52.382;5.270;2023-02-17T05:41:34;101712.81;;;8.20;100.00
47054;BME280;32811;52.382;5.270;2023-02-17T05:44:00;101724.22;;;8.29;100.00
47054;BME280;32811;52.382;5.270;2023-02-17T05:46:27;101724.13;;;8.26;100.00
47054;BME280;32811;52.382;5.270;2023-02-17T05:48:54;101711.16;;;8.22;100.00
47054;BME280;32811;52.382;5.270;2023-02-17T05:51:20;101709.31;;;8.18;100.00
47054;BME280;32811;52.382;5.270;2023-02-17T05:53:47;101710.25;;;8.21;100.00
47054;BME280;32811;52.382;5.270;2023-02-17T05:56:14;101710.22;;;8.20;100.00
47054;BME280;32811;52.382;5.270;2023-02-17T05:58:40;101714.47;;;8.18;100.00
47054;BME280;32811;52.382;5.270;2023-02-17T06:01:11;101719.00;;;8.28;100.00
47054;BME280;32811;52.382;5.270;2023-02-17T06:03:37;101725.00;;;8.27;100.00
47054;BME280;32811;52.382;5.270;2023-02-17T06:06:04;101729.16;;;8.23;100.00
47054;BME280;32811;52.382;5.270;2023-02-17T06:08:33;101731.25;;;8.37;100.00
47054;BME280;32811;52.382;5.270;2023-02-17T06:11:00;101720.03;;;8.33;100.00
47054;BME280;32811;52.382;5.270;2023-02-17T06:13:28;101699.53;;;8.36;100.00
47054;BME280;32811;52.382;5.270;2023-02-17T06:15:55;101712.44;;;8.38;100.00
47054;BME280;32811;52.382;5.270;2023-02-17T06:18:21;101718.50;;;8.40;100.00
47054;BME280;32811;52.382;5.270;2023-02-17T06:20:48;101711.41;;;8.31;100.00
47054;BME280;32811;52.382;5.270;2023-02-17T06:23:15;101708.91;;;8.34;100.00
47054;BME280;32811;52.382;5.270;2023-02-17T06:25:42;101685.56;;;8.28;100.00
47054;BME280;32811;52.382;5.270;2023-02-17T06:28:08;101688.53;;;8.40;100.00
47054;BME280;32811;52.382;5.270;2023-02-17T06:30:35;101683.22;;;8.36;100.00
47054;BME280;32811;52.382;5.270;2023-02-17T06:33:02;101695.09;;;8.30;100.00
47054;BME280;32811;52.382;5.270;2023-02-17T06:35:28;101692.72;;;8.38;100.00
47054;BME280;32811;52.382;5.270;2023-02-17T06:37:55;101696.31;;;8.43;100.00
47054;BME280;32811;52.382;5.270;2023-02-17T06:40:22;101691.16;;;8.43;100.00
47054;BME280;32811;52.382;5.270;2023-02-17T06:42:49;101674.00;;;8.42;100.00
47054;BME280;32811;52.382;5.270;2023-02-17T06:45:16;101677.50;;;8.44;100.00
47054;BME280;32811;52.382;5.270;2023-02-17T06:47:42;101673.34;;;8.49;100.00
47054;BME280;32811;52.382;5.270;2023-02-17T06:50:09;101660.31;;;8.43;100.00
47054;BME280;32811;52.382;5.270;2023-02-17T06:52:36;101673.28;;;8.48;100.00
47054;BME280;32811;52.382;5.270;2023-02-17T06:55:03;101672.47;;;8.49;100.00
47054;BME280;32811;52.382;5.270;2023-02-17T06:57:30;101683.69;;;8.52;100.00
47054;BME280;32811;52.382;5.270;2023-02-17T06:59:56;101703.41;;;8.52;100.00
47054;BME280;32811;52.382;5.270;2023-02-17T07:02:23;101694.72;;;8.47;100.00
47054;BME280;32811;52.382;5.270;2023-02-17T07:04:50;101704.44;;;8.59;100.00
47054;BME280;32811;52.382;5.270;2023-02-17T07:07:16;101698.31;;;8.54;100.00
47054;BME280;32811;52.382;5.270;2023-02-17T07:09:43;101694.19;;;8.60;100.00
47054;BME280;32811;52.382;5.270;2023-02-17T07:12:09;101706.16;;;8.58;100.00
47054;BME280;32811;52.382;5.270;2023-02-17T07:14:36;101694.09;;;8.57;100.00
47054;BME280;32811;52.382;5.270;2023-02-17T07:17:03;101679.69;;;8.62;100.00
47054;BME280;32811;52.382;5.270;2023-02-17T07:19:29;101691.75;;;8.65;100.00
47054;BME280;32811;52.382;5.270;2023-02-17T07:21:56;101671.84;;;8.58;100.00
47054;BME280;32811;52.382;5.270;2023-02-17T07:24:23;101678.00;;;8.64;100.00
47054;BME280;32811;52.382;5.270;2023-02-17T07:26:50;101675.50;;;8.67;100.00
47054;BME280;32811;52.382;5.270;2023-02-17T07:29:19;101661.78;;;8.68;100.00
47054;BME280;32811;52.382;5.270;2023-02-17T07:31:45;101656.50;;;8.62;100.00
47054;BME280;32811;52.382;5.270;2023-02-17T07:34:12;101663.38;;;8.63;100.00
47054;BME280;32811;52.382;5.270;2023-02-17T07:36:39;101660.00;;;8.64;100.00
47054;BME280;32811;52.382;5.270;2023-02-17T07:39:05;101675.63;;;8.72;100.00
47054;BME280;32811;52.382;5.270;2023-02-17T07:41:32;101666.19;;;8.71;100.00
47054;BME280;32811;52.382;5.270;2023-02-17T07:43:59;101676.66;;;8.79;100.00
47054;BME280;32811;52.382;5.270;2023-02-17T07:46:26;101648.19;;;8.72;100.00
47054;BME280;32811;52.382;5.270;2023-02-17T07:48:52;101654.28;;;8.76;100.00
47054;BME280;32811;52.382;5.270;2023-02-17T07:51:21;101659.66;;;8.85;100.00
47054;BME280;32811;52.382;5.270;2023-02-17T07:53:49;101666.63;;;8.89;100.00
47054;BME280;32811;52.382;5.270;2023-02-17T07:56:18;101670.94;;;8.90;100.00
47054;BME280;32811;52.382;5.270;2023-02-17T07:58:47;101669.94;;;8.85;100.00
47054;BME280;32811;52.382;5.270;2023-02-17T08:01:17;101671.72;;;8.86;100.00
47054;BME280;32811;52.382;5.270;2023-02-17T08:03:44;101682.94;;;8.90;100.00
47054;BME280;32811;52.382;5.270;2023-02-17T08:06:13;101679.56;;;8.91;100.00
47054;BME280;32811;52.382;5.270;2023-02-17T08:08:40;101701.19;;;8.99;100.00
47054;BME280;32811;52.382;5.270;2023-02-17T08:11:26;101694.38;;;9.01;100.00
47054;BME280;32811;52.382;5.270;2023-02-17T08:14:15;101694.41;;;9.03;100.00
47054;BME280;32811;52.382;5.270;2023-02-17T08:16:41;101699.56;;;9.03;100.00
47054;BME280;32811;52.382;5.270;2023-02-17T08:19:08;101693.66;;;9.07;100.00
47054;BME280;32811;52.382;5.270;2023-02-17T08:21:35;101699.69;;;9.07;100.00
47054;BME280;32811;52.382;5.270;2023-02-17T08:24:01;101681.59;;;9.06;100.00
47054;BME280;32811;52.382;5.270;2023-02-17T08:26:28;101687.78;;;9.12;100.00
47054;BME280;32811;52.382;5.270;2023-02-17T08:28:55;101707.34;;;9.04;100.00
47054;BME280;32811;52.382;5.270;2023-02-17T08:31:27;101728.91;;;9.09;100.00
47054;BME280;32811;52.382;5.270;2023-02-17T08:33:55;101713.50;;;9.11;100.00
47054;BME280;32811;52.382;5.270;2023-02-17T08:36:22;101701.44;;;9.10;100.00
47054;BME280;32811;52.382;5.270;2023-02-17T08:38:53;101706.66;;;9.11;100.00
47054;BME280;32811;52.382;5.270;2023-02-17T08:41:21;101713.63;;;9.16;100.00
47054;BME280;32811;52.382;5.270;2023-02-17T08:43:49;101718.66;;;9.11;100.00
47054;BME280;32811;52.382;5.270;2023-02-17T08:46:16;101704.06;;;9.11;100.00
47054;BME280;32811;52.382;5.270;2023-02-17T08:48:44;101681.59;;;9.04;100.00
47054;BME280;32811;52.382;5.270;2023-02-17T08:51:12;101693.78;;;9.13;100.00
47054;BME280;32811;52.382;5.270;2023-02-17T08:53:39;101695.44;;;9.09;100.00
47054;BME280;32811;52.382;5.270;2023-02-17T08:56:06;101705.00;;;9.15;100.00
47054;BME280;32811;52.382;5.270;2023-02-17T08:58:34;101691.38;;;9.19;100.00
47054;BME280;32811;52.382;5.270;2023-02-17T09:01:01;101682.28;;;9.33;100.00
47054;BME280;32811;52.382;5.270;2023-02-17T09:03:28;101684.06;;;9.38;100.00
47054;BME280;32811;52.382;5.270;2023-02-17T09:05:56;101667.78;;;9.39;100.00
47054;BME280;32811;52.382;5.270;2023-02-17T09:08:23;101677.22;;;9.38;100.00
47054;BME280;32811;52.382;5.270;2023-02-17T09:10:50;101675.66;;;9.46;100.00
47054;BME280;32811;52.382;5.270;2023-02-17T09:13:18;101668.84;;;9.48;100.00
47054;BME280;32811;52.382;5.270;2023-02-17T09:15:45;101671.41;;;9.47;100.00
47054;BME280;32811;52.382;5.270;2023-02-17T09:18:11;101682.75;;;9.55;100.00
47054;BME280;32811;52.382;5.270;2023-02-17T09:20:38;101669.84;;;9.53;100.00
47054;BME280;32811;52.382;5.270;2023-02-17T09:23:05;101675.09;;;9.58;100.00
47054;BME280;32811;52.382;5.270;2023-02-17T09:25:32;101661.31;;;9.56;100.00
47054;BME280;32811;52.382;5.270;2023-02-17T09:27:58;101665.06;;;9.72;100.00
47054;BME280;32811;52.382;5.270;2023-02-17T09:30:26;101654.00;;;9.77;100.00
47054;BME280;32811;52.382;5.270;2023-02-17T09:32:52;101655.03;;;9.86;100.00
47054;BME280;32811;52.382;5.270;2023-02-17T09:35:19;101655.97;;;9.89;100.00
47054;BME280;32811;52.382;5.270;2023-02-17T09:37:45;101652.59;;;9.92;100.00
47054;BME280;32811;52.382;5.270;2023-02-17T09:40:19;101650.03;;;9.93;100.00
47054;BME280;32811;52.382;5.270;2023-02-17T09:42:47;101648.22;;;9.88;100.00
47054;BME280;32811;52.382;5.270;2023-02-17T09:45:26;101662.72;;;9.84;100.00
47054;BME280;32811;52.382;5.270;2023-02-17T09:48:06;101650.53;;;9.75;100.00
47054;BME280;32811;52.382;5.270;2023-02-17T09:50:54;101662.53;;;9.75;100.00
47054;BME280;32811;52.382;5.270;2023-02-17T09:55:56;101678.00;;;9.75;100.00
47054;BME280;32811;52.382;5.270;2023-02-17T09:58:33;101680.44;;;9.69;100.00
47054;BME280;32811;52.382;5.270;2023-02-17T10:01:06;101685.66;;;9.70;100.00
47054;BME280;32811;52.382;5.270;2023-02-17T10:03:43;101693.34;;;9.67;100.00
47054;BME280;32811;52.382;5.270;2023-02-17T10:06:38;101708.03;;;9.73;100.00
47054;BME280;32811;52.382;5.270;2023-02-17T10:14:39;101698.84;;;9.84;100.00
47054;BME280;32811;52.382;5.270;2023-02-17T10:17:14;101698.09;;;9.90;100.00
47054;BME280;32811;52.382;5.270;2023-02-17T10:22:16;101699.81;;;9.89;100.00
47054;BME280;32811;52.382;5.270;2023-02-17T10:24:43;101698.28;;;9.99;100.00
47054;BME280;32811;52.382;5.270;2023-02-17T10:30:03;101710.31;;;9.98;100.00
47054;BME280;32811;52.382;5.270;2023-02-17T10:32:45;101688.75;;;9.95;100.00
47054;BME280;32811;52.382;5.270;2023-02-17T10:35:51;101696.63;;;10.01;100.00
47054;BME280;32811;52.382;5.270;2023-02-17T10:38:38;101694.19;;;10.09;100.00
47054;BME280;32811;52.382;5.270;2023-02-17T10:41:13;101708.97;;;10.16;100.00
47054;BME280;32811;52.382;5.270;2023-02-17T10:43:41;101733.03;;;10.16;100.00
47054;BME280;32811;52.382;5.270;2023-02-17T10:46:12;101722.78;;;10.19;100.00
47054;BME280;32811;52.382;5.270;2023-02-17T10:48:47;101736.63;;;10.23;100.00
47054;BME280;32811;52.382;5.270;2023-02-17T10:51:18;101753.13;;;10.31;100.00
47054;BME280;32811;52.382;5.270;2023-02-17T10:53:50;101754.72;;;10.26;100.00
47054;BME280;32811;52.382;5.270;2023-02-17T10:56:27;101753.19;;;10.33;100.00
47054;BME280;32811;52.382;5.270;2023-02-17T10:59:27;101744.53;;;10.31;100.00
47054;BME280;32811;52.382;5.270;2023-02-17T11:01:58;101752.13;;;10.25;100.00
47054;BME280;32811;52.382;5.270;2023-02-17T11:04:25;101731.41;;;10.22;100.00
47054;BME280;32811;52.382;5.270;2023-02-17T11:06:53;101768.78;;;10.39;100.00
47054;BME280;32811;52.382;5.270;2023-02-17T11:09:24;101781.66;;;10.37;100.00
47054;BME280;32811;52.382;5.270;2023-02-17T11:12:12;101776.34;;;10.30;100.00
47054;BME280;32811;52.382;5.270;2023-02-17T11:14:47;101788.31;;;10.28;100.00
47054;BME280;32811;52.382;5.270;2023-02-17T11:20:00;101792.84;;;10.36;100.00
47054;BME280;32811;52.382;5.270;2023-02-17T11:25:04;101791.88;;;10.33;100.00
47054;BME280;32811;52.382;5.270;2023-02-17T11:27:31;101782.44;;;10.33;100.00
47054;BME280;32811;52.382;5.270;2023-02-17T11:30:13;101796.28;;;10.37;100.00
47054;BME280;32811;52.382;5.270;2023-02-17T11:32:40;101770.66;;;10.46;100.00
47054;BME280;32811;52.382;5.270;2023-02-17T11:35:19;101790.41;;;10.44;100.00
47054;BME280;32811;52.382;5.270;2023-02-17T11:37:47;101789.72;;;10.53;100.00
47054;BME280;32811;52.382;5.270;2023-02-17T11:40:26;101785.09;;;10.38;100.00
47054;BME280;32811;52.382;5.270;2023-02-17T11:42:56;101789.47;;;10.41;100.00
47054;BME280;32811;52.382;5.270;2023-02-17T11:45:27;101789.41;;;10.37;100.00
47054;BME280;32811;52.382;5.270;2023-02-17T11:48:20;101794.59;;;10.39;100.00
47054;BME280;32811;52.382;5.270;2023-02-17T11:51:15;101775.50;;;10.29;100.00
47054;BME280;32811;52.382;5.270;2023-02-17T11:56:36;101779.63;;;10.23;100.00
47054;BME280;32811;52.382;5.270;2023-02-17T12:10:18;101810.50;;;10.18;100.00
47054;BME280;32811;52.382;5.270;2023-02-17T12:13:00;101803.47;;;10.12;100.00
47054;BME280;32811;52.382;5.270;2023-02-17T12:21:15;101806.25;;;10.22;100.00
47054;BME280;32811;52.382;5.270;2023-02-17T12:34:00;101806.28;;;10.25;100.00
47054;BME280;32811;52.382;5.270;2023-02-17T12:36:39;101795.16;;;10.26;100.00
47054;BME280;32811;52.382;5.270;2023-02-17T12:39:20;101822.03;;;10.35;100.00
47054;BME280;32811;52.382;5.270;2023-02-17T12:41:59;101819.28;;;10.28;100.00
47054;BME280;32811;52.382;5.270;2023-02-17T12:44:35;101819.41;;;10.32;100.00
47054;BME280;32811;52.382;5.270;2023-02-17T12:47:16;101818.78;;;10.43;100.00
47054;BME280;32811;52.382;5.270;2023-02-17T12:50:00;101805.06;;;10.45;100.00
47054;BME280;32811;52.382;5.270;2023-02-17T12:52:33;101824.75;;;10.42;100.00
47054;BME280;32811;52.382;5.270;2023-02-17T12:55:13;101831.84;;;10.50;100.00
47054;BME280;32811;52.382;5.270;2023-02-17T12:57:50;101830.00;;;10.46;100.00
47054;BME280;32811;52.382;5.270;2023-02-17T13:00:26;101838.75;;;10.53;100.00
47054;BME280;32811;52.382;5.270;2023-02-17T13:02:58;101829.28;;;10.52;100.00
47054;BME280;32811;52.382;5.270;2023-02-17T13:05:37;101827.63;;;10.54;100.00
47054;BME280;32811;52.382;5.270;2023-02-17T13:11:32;101831.38;;;10.70;100.00
47054;BME280;32811;52.382;5.270;2023-02-17T13:14:27;101839.94;;;10.67;100.00
47054;BME280;32811;52.382;5.270;2023-02-17T13:16:54;101841.66;;;10.68;100.00
47054;BME280;32811;52.382;5.270;2023-02-17T13:19:29;101832.19;;;10.69;100.00
47054;BME280;32811;52.382;5.270;2023-02-17T13:21:57;101845.97;;;10.68;100.00
47054;BME280;32811;52.382;5.270;2023-02-17T13:24:50;101846.88;;;10.70;100.00
47054;BME280;32811;52.382;5.270;2023-02-17T13:27:32;101824.31;;;10.63;100.00
47054;BME280;32811;52.382;5.270;2023-02-17T13:33:02;101828.66;;;10.64;100.00
47054;BME280;32811;52.382;5.270;2023-02-17T13:35:35;101837.22;;;10.63;100.00
47054;BME280;32811;52.382;5.270;2023-02-17T13:38:02;101848.38;;;10.60;100.00
47054;BME280;32811;52.382;5.270;2023-02-17T13:42:56;101845.16;;;10.70;100.00
47054;BME280;32811;52.382;5.270;2023-02-17T13:45:48;101851.03;;;10.65;100.00
47054;BME280;32811;52.382;5.270;2023-02-17T13:48:34;101832.16;;;10.66;100.00
47054;BME280;32811;52.382;5.270;2023-02-17T13:51:06;101822.53;;;10.58;100.00
47054;BME280;32811;52.382;5.270;2023-02-17T13:53:37;101837.63;;;10.81;100.00
47054;BME280;32811;52.382;5.270;2023-02-17T14:00:59;101827.34;;;10.84;100.00
47054;BME280;32811;52.382;5.270;2023-02-17T14:03:47;101833.44;;;10.89;100.00
47054;BME280;32811;52.382;5.270;2023-02-17T14:06:27;101821.22;;;10.79;100.00
47054;BME280;32811;52.382;5.270;2023-02-17T14:08:55;101845.44;;;10.86;100.00
47054;BME280;32811;52.382;5.270;2023-02-17T14:11:24;101837.53;;;10.78;100.00
47054;BME280;32811;52.382;5.270;2023-02-17T14:13:54;101840.19;;;10.83;100.00
47054;BME280;32811;52.382;5.270;2023-02-17T14:16:39;101847.84;;;10.76;100.00
47054;BME280;32811;52.382;5.270;2023-02-17T14:19:11;101852.06;;;10.73;100.00
47054;BME280;32811;52.382;5.270;2023-02-17T14:24:32;101858.38;;;10.86;100.00
47054;BME280;32811;52.382;5.270;2023-02-17T14:27:05;101871.31;;;10.89;100.00
47054;BME280;32811;52.382;5.270;2023-02-17T14:29:45;101873.09;;;10.90;100.00
47054;BME280;32811;52.382;5.270;2023-02-17T14:37:41;101860.84;;;10.81;100.00
47054;BME280;32811;52.382;5.270;2023-02-17T14:40:19;101878.97;;;10.84;100.00
47054;BME280;32811;52.382;5.270;2023-02-17T14:42:46;101877.06;;;10.74;100.00
47054;BME280;32811;52.382;5.270;2023-02-17T14:45:13;101880.53;;;10.76;100.00
47054;BME280;32811;52.382;5.270;2023-02-17T14:47:41;101877.94;;;10.74;100.00